sensor_id;sensor_type;location;lat;lon;timestamp;temperature;humidity
15676;DHT22;7938;47.666;9.434;2022-07-06T04:02:44;13.60;99.90
15676;DHT22;7938;47.666;9.434;2022-07-06T04:05:11;13.80;99.90
15676;DHT22;7938;47.666;9.434;2022-07-06T04:07:37;13.60;99.90
15676;DHT22;7938;47.666;9.434;2022-07-06T04:10:05;13.60;99.90
15676;DHT22;7938;47.666;9.434;2022-07-06T04:12:39;13.70;99.90
15676;DHT22;7938;47.666;9.434;2022-07-06T04:15:07;13.70;99.90
15676;DHT22;7938;47.666;9.434;2022-07-06T04:17:34;13.70;99.90
15676;DHT22;7938;47.666;9.434;2022-07-06T04:20:21;13.80;99.90
15676;DHT22;7938;47.666;9.434;2022-07-06T04:22:48;13.80;99.90
15676;DHT22;7938;47.666;9.434;2022-07-06T04:25:16;13.90;99.90
15676;DHT22;7938;47.666;9.434;2022-07-06T04:27:43;13.90;99.90
15676;DHT22;7938;47.666;9.434;2022-07-06T04:30:10;14.00;99.90
15676;DHT22;7938;47.666;9.434;2022-07-06T04:32:38;14.00;99.90
15676;DHT22;7938;47.666;9.434;2022-07-06T04:35:05;14.10;99.90
15676;DHT22;7938;47.666;9.434;2022-07-06T04:37:34;14.10;99.90
15676;DHT22;7938;47.666;9.434;2022-07-06T04:40:01;14.20;99.90
15676;DHT22;7938;47.666;9.434;2022-07-06T04:42:28;14.30;99.90
15676;DHT22;7938;47.666;9.434;2022-07-06T04:44:55;14.30;99.90
15676;DHT22;7938;47.666;9.434;2022-07-06T04:47:21;14.40;99.90
15676;DHT22;7938;47.666;9.434;2022-07-06T04:49:48;14.50;99.90
15676;DHT22;7938;47.666;9.434;2022-07-06T04:52:15;14.60;99.90
15676;DHT22;7938;47.666;9.434;2022-07-06T04:54:43;14.70;99.90
15676;DHT22;7938;47.666;9.434;2022-07-06T04:57:10;14.80;99.90
15676;DHT22;7938;47.666;9.434;2022-07-06T04:59:37;14.90;99.90
15676;DHT22;7938;47.666;9.434;2022-07-06T05:02:04;14.90;99.90
15676;DHT22;7938;47.666;9.434;2022-07-06T05:04:31;15.00;99.90
15676;DHT22;7938;47.666;9.434;2022-07-06T05:06:58;15.10;99.90
15676;DHT22;7938;47.666;9.434;2022-07-06T05:09:25;15.20;99.90
15676;DHT22;7938;47.666;9.434;2022-07-06T05:11:53;15.30;99.90
15676;DHT22;7938;47.666;9.434;2022-07-06T05:14:20;15.40;99.90
15676;DHT22;7938;47.666;9.434;2022-07-06T05:16:47;15.40;99.90
15676;DHT22;7938;47.666;9.434;2022-07-06T05:19:14;15.50;99.90
15676;DHT22;7938;47.666;9.434;2022-07-06T05:21:41;15.60;99.90
15676;DHT22;7938;47.666;9.434;2022-07-06T05:24:08;15.60;99.90
15676;DHT22;7938;47.666;9.434;2022-07-06T05:26:35;15.70;99.90
15676;DHT22;7938;47.666;9.434;2022-07-06T05:29:03;15.80;99.90
15676;DHT22;7938;47.666;9.434;2022-07-06T05:31:30;15.80;99.90
15676;DHT22;7938;47.666;9.434;2022-07-06T05:33:57;15.90;99.90
15676;DHT22;7938;47.666;9.434;2022-07-06T05:36:24;16.00;99.90
15676;DHT22;7938;47.666;9.434;2022-07-06T05:38:51;16.20;99.90
15676;DHT22;7938;47.666;9.434;2022-07-06T05:41:17;16.20;99.90
15676;DHT22;7938;47.666;9.434;2022-07-06T05:43:44;16.30;99.90
15676;DHT22;7938;47.666;9.434;2022-07-06T05:46:13;16.50;99.90
15676;DHT22;7938;47.666;9.434;2022-07-06T05:48:39;16.60;99.90
15676;DHT22;7938;47.666;9.434;2022-07-06T05:51:24;16.60;99.90
15676;DHT22;7938;47.666;9.434;2022-07-06T05:53:51;16.80;99.90
15676;DHT22;7938;47.666;9.434;2022-07-06T05:56:17;16.80;99.90
15676;DHT22;7938;47.666;9.434;2022-07-06T05:58:44;17.00;99.90
15676;DHT22;7938;47.666;9.434;2022-07-06T06:01:13;17.00;99.90
15676;DHT22;7938;47.666;9.434;2022-07-06T06:03:39;17.10;99.90
15676;DHT22;7938;47.666;9.434;2022-07-06T06:06:07;17.10;99.90
15676;DHT22;7938;47.666;9.434;2022-07-06T06:08:33;17.10;99.90
15676;DHT22;7938;47.666;9.434;2022-07-06T06:11:00;17.20;99.90
15676;DHT22;7938;47.666;9.434;2022-07-06T06:13:27;17.30;99.90
15676;DHT22;7938;47.666;9.434;2022-07-06T06:15:54;17.30;99.90
15676;DHT22;7938;47.666;9.434;2022-07-06T06:18:22;17.40;99.90
15676;DHT22;7938;47.666;9.434;2022-07-06T06:20:49;17.40;99.90
15676;DHT22;7938;47.666;9.434;2022-07-06T06:23:16;17.50;99.90
15676;DHT22;7938;47.666;9.434;2022-07-06T06:25:43;17.60;99.90
15676;DHT22;7938;47.666;9.434;2022-07-06T06:28:11;17.70;99.90
15676;DHT22;7938;47.666;9.434;2022-07-06T06:30:38;17.70;99.90
15676;DHT22;7938;47.666;9.434;2022-07-06T06:33:10;17.80;99.90
15676;DHT22;7938;47.666;9.434;2022-07-06T06:35:42;17.90;99.90
15676;DHT22;7938;47.666;9.434;2022-07-06T06:38:10;17.90;99.90
15676;DHT22;7938;47.666;9.434;2022-07-06T06:40:37;18.00;99.90
15676;DHT22;7938;47.666;9.434;2022-07-06T06:43:04;18.10;99.90
15676;DHT22;7938;47.666;9.434;2022-07-06T06:45:32;18.10;99.90
15676;DHT22;7938;47.666;9.434;2022-07-06T06:47:59;17.60;99.90
15676;DHT22;7938;47.666;9.434;2022-07-06T06:50:26;18.30;99.90
15676;DHT22;7938;47.666;9.434;2022-07-06T06:52:54;18.30;99.90
15676;DHT22;7938;47.666;9.434;2022-07-06T06:55:21;18.50;99.90
15676;DHT22;7938;47.666;9.434;2022-07-06T06:57:48;18.50;99.90
15676;DHT22;7938;47.666;9.434;2022-07-06T07:00:15;18.60;99.90
15676;DHT22;7938;47.666;9.434;2022-07-06T07:02:42;18.70;99.90
15676;DHT22;7938;47.666;9.434;2022-07-06T07:05:09;18.80;99.90
15676;DHT22;7938;47.666;9.434;2022-07-06T07:07:36;19.00;99.90
15676;DHT22;7938;47.666;9.434;2022-07-06T07:10:06;19.20;99.90
15676;DHT22;7938;47.666;9.434;2022-07-06T07:12:33;19.30;99.90
15676;DHT22;7938;47.666;9.434;2022-07-06T07:15:00;19.30;99.90
15676;DHT22;7938;47.666;9.434;2022-07-06T07:17:27;19.20;99.90
15676;DHT22;7938;47.666;9.434;2022-07-06T07:19:54;19.20;99.90
15676;DHT22;7938;47.666;9.434;2022-07-06T07:22:23;19.20;99.90
15676;DHT22;7938;47.666;9.434;2022-07-06T07:24:50;19.30;99.90
15676;DHT22;7938;47.666;9.434;2022-07-06T07:27:18;19.40;99.90
15676;DHT22;7938;47.666;9.434;2022-07-06T07:29:45;19.60;99.90
15676;DHT22;7938;47.666;9.434;2022-07-06T07:32:12;19.80;99.90
15676;DHT22;7938;47.666;9.434;2022-07-06T07:34:39;19.70;99.90
15676;DHT22;7938;47.666;9.434;2022-07-06T07:37:06;19.90;99.90
15676;DHT22;7938;47.666;9.434;2022-07-06T07:39:33;20.00;99.90
15676;DHT22;7938;47.666;9.434;2022-07-06T07:42:00;20.20;99.90
15676;DHT22;7938;47.666;9.434;2022-07-06T07:44:28;20.20;99.90
15676;DHT22;7938;47.666;9.434;2022-07-06T07:46:55;20.30;99.90
15676;DHT22;7938;47.666;9.434;2022-07-06T07:49:22;20.30;99.90
15676;DHT22;7938;47.666;9.434;2022-07-06T07:51:49;20.50;99.90
15676;DHT22;7938;47.666;9.434;2022-07-06T07:54:16;20.50;99.90
15676;DHT22;7938;47.666;9.434;2022-07-06T07:56:43;20.40;99.90
15676;DHT22;7938;47.666;9.434;2022-07-06T07:59:10;20.50;99.90
15676;DHT22;7938;47.666;9.434;2022-07-06T08:01:38;20.70;99.90
15676;DHT22;7938;47.666;9.434;2022-07-06T08:04:05;20.80;99.90
15676;DHT22;7938;47.666;9.434;2022-07-06T08:06:32;20.80;99.90
15676;DHT22;7938;47.666;9.434;2022-07-06T08:08:59;20.90;99.90
15676;DHT22;7938;47.666;9.434;2022-07-06T08:11:28;21.00;99.90
15676;DHT22;7938;47.666;9.434;2022-07-06T08:13:55;21.10;99.90
15676;DHT22;7938;47.666;9.434;2022-07-06T08:16:22;21.10;99.90
15676;DHT22;7938;47.666;9.434;2022-07-06T08:18:50;21.00;99.90
15676;DHT22;7938;47.666;9.434;2022-07-06T08:21:17;21.00;99.90
15676;DHT22;7938;47.666;9.434;2022-07-06T08:23:44;20.90;99.90
15676;DHT22;7938;47.666;9.434;2022-07-06T08:26:11;20.90;99.90
15676;DHT22;7938;47.666;9.434;2022-07-06T08:28:38;21.00;99.90
15676;DHT22;7938;47.666;9.434;2022-07-06T08:31:05;21.00;99.50
15676;DHT22;7938;47.666;9.434;2022-07-06T08:33:32;21.10;99.90
15676;DHT22;7938;47.666;9.434;2022-07-06T08:36:02;21.20;99.70
15676;DHT22;7938;47.666;9.434;2022-07-06T08:38:29;21.10;99.40
15676;DHT22;7938;47.666;9.434;2022-07-06T08:40:56;21.20;99.10
15676;DHT22;7938;47.666;9.434;2022-07-06T08:43:23;21.30;99.90
15676;DHT22;7938;47.666;9.434;2022-07-06T08:45:53;21.40;98.60
15676;DHT22;7938;47.666;9.434;2022-07-06T08:48:23;21.40;99.00
15676;DHT22;7938;47.666;9.434;2022-07-06T08:50:51;21.40;97.80
15676;DHT22;7938;47.666;9.434;2022-07-06T08:53:20;21.40;98.00
15676;DHT22;7938;47.666;9.434;2022-07-06T08:55:48;21.50;99.90
15676;DHT22;7938;47.666;9.434;2022-07-06T08:58:15;21.50;98.30
15676;DHT22;7938;47.666;9.434;2022-07-06T09:00:42;21.60;99.00
15676;DHT22;7938;47.666;9.434;2022-07-06T09:03:11;21.70;99.40
15676;DHT22;7938;47.666;9.434;2022-07-06T09:05:40;21.90;99.90
15676;DHT22;7938;47.666;9.434;2022-07-06T09:08:06;22.00;99.60
15676;DHT22;7938;47.666;9.434;2022-07-06T09:10:35;22.00;99.50
15676;DHT22;7938;47.666;9.434;2022-07-06T09:13:03;22.10;99.90
15676;DHT22;7938;47.666;9.434;2022-07-06T09:15:30;22.20;99.90
15676;DHT22;7938;47.666;9.434;2022-07-06T09:17:57;22.30;98.90
15676;DHT22;7938;47.666;9.434;2022-07-06T09:20:24;22.50;98.10
15676;DHT22;7938;47.666;9.434;2022-07-06T09:22:57;22.40;98.20
15676;DHT22;7938;47.666;9.434;2022-07-06T09:25:25;22.50;99.90
15676;DHT22;7938;47.666;9.434;2022-07-06T09:27:56;22.40;99.90
15676;DHT22;7938;47.666;9.434;2022-07-06T09:30:24;22.40;99.90
15676;DHT22;7938;47.666;9.434;2022-07-06T09:32:53;22.40;99.90
15676;DHT22;7938;47.666;9.434;2022-07-06T09:35:22;22.50;99.90
15676;DHT22;7938;47.666;9.434;2022-07-06T09:38:00;22.50;99.90
15676;DHT22;7938;47.666;9.434;2022-07-06T09:40:30;22.50;99.90
15676;DHT22;7938;47.666;9.434;2022-07-06T09:43:12;22.50;99.90
15676;DHT22;7938;47.666;9.434;2022-07-06T09:45:41;22.50;99.90
15676;DHT22;7938;47.666;9.434;2022-07-06T09:48:09;22.50;99.90
15676;DHT22;7938;47.666;9.434;2022-07-06T09:50:41;22.30;99.90
15676;DHT22;7938;47.666;9.434;2022-07-06T09:53:09;22.20;99.90
15676;DHT22;7938;47.666;9.434;2022-07-06T09:55:36;22.20;99.90
15676;DHT22;7938;47.666;9.434;2022-07-06T09:58:04;22.30;99.90
15676;DHT22;7938;47.666;9.434;2022-07-06T10:00:32;22.40;99.90
15676;DHT22;7938;47.666;9.434;2022-07-06T10:03:00;22.40;99.90
15676;DHT22;7938;47.666;9.434;2022-07-06T10:05:27;22.40;99.90
15676;DHT22;7938;47.666;9.434;2022-07-06T10:07:58;22.40;99.90
15676;DHT22;7938;47.666;9.434;2022-07-06T10:10:26;22.40;99.90
15676;DHT22;7938;47.666;9.434;2022-07-06T10:12:55;22.40;99.90
15676;DHT22;7938;47.666;9.434;2022-07-06T10:15:26;22.40;99.90
15676;DHT22;7938;47.666;9.434;2022-07-06T10:17:55;22.50;99.90
15676;DHT22;7938;47.666;9.434;2022-07-06T10:20:22;22.40;99.90
15676;DHT22;7938;47.666;9.434;2022-07-06T10:22:50;22.70;99.90
15676;DHT22;7938;47.666;9.434;2022-07-06T10:25:18;22.80;99.90
15676;DHT22;7938;47.666;9.434;2022-07-06T10:27:46;22.90;99.90
15676;DHT22;7938;47.666;9.434;2022-07-06T10:30:14;22.90;99.90
15676;DHT22;7938;47.666;9.434;2022-07-06T10:32:44;23.10;99.90
15676;DHT22;7938;47.666;9.434;2022-07-06T10:35:12;23.20;99.90
15676;DHT22;7938;47.666;9.434;2022-07-06T10:37:40;23.30;99.90
15676;DHT22;7938;47.666;9.434;2022-07-06T10:40:08;23.50;99.90
15676;DHT22;7938;47.666;9.434;2022-07-06T10:42:56;23.70;99.90
15676;DHT22;7938;47.666;9.434;2022-07-06T10:45:51;23.50;99.80
15676;DHT22;7938;47.666;9.434;2022-07-06T10:48:20;23.60;99.90
15676;DHT22;7938;47.666;9.434;2022-07-06T10:50:50;23.40;99.90
15676;DHT22;7938;47.666;9.434;2022-07-06T10:53:21;23.50;99.60
15676;DHT22;7938;47.666;9.434;2022-07-06T10:55:50;23.50;98.50
15676;DHT22;7938;47.666;9.434;2022-07-06T10:58:39;23.50;99.70
15676;DHT22;7938;47.666;9.434;2022-07-06T11:01:07;23.70;99.70
15676;DHT22;7938;47.666;9.434;2022-07-06T11:03:38;23.80;99.60
15676;DHT22;7938;47.666;9.434;2022-07-06T11:06:08;23.80;99.30
15676;DHT22;7938;47.666;9.434;2022-07-06T11:08:52;23.80;98.20
15676;DHT22;7938;47.666;9.434;2022-07-06T11:11:21;23.80;98.80
15676;DHT22;7938;47.666;9.434;2022-07-06T11:13:53;23.80;98.90
15676;DHT22;7938;47.666;9.434;2022-07-06T11:16:21;23.90;99.00
15676;DHT22;7938;47.666;9.434;2022-07-06T11:18:50;24.00;98.50
15676;DHT22;7938;47.666;9.434;2022-07-06T11:24:19;23.90;97.70
15676;DHT22;7938;47.666;9.434;2022-07-06T11:26:47;23.90;98.10
15676;DHT22;7938;47.666;9.434;2022-07-06T11:29:15;23.90;98.10
15676;DHT22;7938;47.666;9.434;2022-07-06T11:31:44;24.00;97.80
15676;DHT22;7938;47.666;9.434;2022-07-06T11:34:18;24.10;98.00
15676;DHT22;7938;47.666;9.434;2022-07-06T11:36:47;24.30;99.00
15676;DHT22;7938;47.666;9.434;2022-07-06T11:39:14;24.30;99.10
15676;DHT22;7938;47.666;9.434;2022-07-06T11:41:42;24.20;97.70
15676;DHT22;7938;47.666;9.434;2022-07-06T11:44:09;24.30;99.00
15676;DHT22;7938;47.666;9.434;2022-07-06T11:46:36;24.40;98.60
15676;DHT22;7938;47.666;9.434;2022-07-06T11:49:05;24.70;97.40
15676;DHT22;7938;47.666;9.434;2022-07-06T11:51:33;24.80;96.10
15676;DHT22;7938;47.666;9.434;2022-07-06T11:54:08;25.00;95.90
15676;DHT22;7938;47.666;9.434;2022-07-06T11:56:35;25.10;96.30
15676;DHT22;7938;47.666;9.434;2022-07-06T11:59:03;25.20;95.70
15676;DHT22;7938;47.666;9.434;2022-07-06T12:01:32;25.10;94.60
15676;DHT22;7938;47.666;9.434;2022-07-06T12:04:01;25.00;94.60
15676;DHT22;7938;47.666;9.434;2022-07-06T12:06:29;25.20;94.20
15676;DHT22;7938;47.666;9.434;2022-07-06T12:08:58;25.30;94.40
15676;DHT22;7938;47.666;9.434;2022-07-06T12:11:28;25.30;93.00
15676;DHT22;7938;47.666;9.434;2022-07-06T12:13:56;25.30;93.90
15676;DHT22;7938;47.666;9.434;2022-07-06T12:16:29;25.30;95.50
15676;DHT22;7938;47.666;9.434;2022-07-06T12:18:56;25.20;94.90
15676;DHT22;7938;47.666;9.434;2022-07-06T12:21:23;25.40;92.70
15676;DHT22;7938;47.666;9.434;2022-07-06T12:23:52;25.70;91.70
15676;DHT22;7938;47.666;9.434;2022-07-06T12:26:21;25.80;90.40
15676;DHT22;7938;47.666;9.434;2022-07-06T12:29:01;25.90;92.50
15676;DHT22;7938;47.666;9.434;2022-07-06T12:31:34;26.10;92.10
15676;DHT22;7938;47.666;9.434;2022-07-06T12:34:01;26.20;88.30
15676;DHT22;7938;47.666;9.434;2022-07-06T12:36:28;26.20;84.80
15676;DHT22;7938;47.666;9.434;2022-07-06T12:38:55;26.30;84.90
15676;DHT22;7938;47.666;9.434;2022-07-06T12:41:27;26.30;84.10
15676;DHT22;7938;47.666;9.434;2022-07-06T12:44:04;26.40;85.90
15676;DHT22;7938;47.666;9.434;2022-07-06T12:46:32;26.50;80.80
15676;DHT22;7938;47.666;9.434;2022-07-06T12:49:01;26.50;85.30
15676;DHT22;7938;47.666;9.434;2022-07-06T12:51:29;26.40;90.10
15676;DHT22;7938;47.666;9.434;2022-07-06T12:54:15;26.40;89.40
15676;DHT22;7938;47.666;9.434;2022-07-06T12:57:06;26.60;91.20
15676;DHT22;7938;47.666;9.434;2022-07-06T12:59:37;26.80;90.80
15676;DHT22;7938;47.666;9.434;2022-07-06T13:02:06;26.70;90.40
15676;DHT22;7938;47.666;9.434;2022-07-06T13:04:33;26.60;89.40
15676;DHT22;7938;47.666;9.434;2022-07-06T13:07:01;26.60;88.80
15676;DHT22;7938;47.666;9.434;2022-07-06T13:09:29;26.70;90.10
15676;DHT22;7938;47.666;9.434;2022-07-06T13:11:56;26.70;90.50
15676;DHT22;7938;47.666;9.434;2022-07-06T13:14:24;26.80;90.60
15676;DHT22;7938;47.666;9.434;2022-07-06T13:16:52;26.90;88.90
15676;DHT22;7938;47.666;9.434;2022-07-06T13:19:19;27.00;89.00
15676;DHT22;7938;47.666;9.434;2022-07-06T13:21:46;27.10;89.60
15676;DHT22;7938;47.666;9.434;2022-07-06T13:24:13;27.20;90.70
15676;DHT22;7938;47.666;9.434;2022-07-06T13:26:40;27.50;91.20
15676;DHT22;7938;47.666;9.434;2022-07-06T13:29:07;27.30;90.40
15676;DHT22;7938;47.666;9.434;2022-07-06T13:31:36;26.80;90.10
15676;DHT22;7938;47.666;9.434;2022-07-06T13:34:06;27.00;90.20
15676;DHT22;7938;47.666;9.434;2022-07-06T13:36:34;27.20;90.20
15676;DHT22;7938;47.666;9.434;2022-07-06T13:39:01;27.50;89.90
15676;DHT22;7938;47.666;9.434;2022-07-06T13:41:28;28.00;89.00
15676;DHT22;7938;47.666;9.434;2022-07-06T13:43:55;28.10;88.00
15676;DHT22;7938;47.666;9.434;2022-07-06T13:46:22;28.10;86.00
15676;DHT22;7938;47.666;9.434;2022-07-06T13:48:49;28.10;82.30
15676;DHT22;7938;47.666;9.434;2022-07-06T13:51:18;28.10;84.90
15676;DHT22;7938;47.666;9.434;2022-07-06T13:53:47;28.30;83.60
15676;DHT22;7938;47.666;9.434;2022-07-06T13:56:14;29.30;81.40
15676;DHT22;7938;47.666;9.434;2022-07-06T13:58:41;30.70;81.90
15676;DHT22;7938;47.666;9.434;2022-07-06T14:01:08;31.40;78.70
15676;DHT22;7938;47.666;9.434;2022-07-06T14:03:35;31.90;77.30
15676;DHT22;7938;47.666;9.434;2022-07-06T14:06:04;31.50;82.10
15676;DHT22;7938;47.666;9.434;2022-07-06T14:08:38;32.60;76.40
15676;DHT22;7938;47.666;9.434;2022-07-06T14:11:06;33.60;73.10
15676;DHT22;7938;47.666;9.434;2022-07-06T14:13:34;33.50;72.10
15676;DHT22;7938;47.666;9.434;2022-07-06T14:16:01;32.90;69.60
15676;DHT22;7938;47.666;9.434;2022-07-06T14:18:29;33.40;69.80
15676;DHT22;7938;47.666;9.434;2022-07-06T14:20:56;34.10;68.90
15676;DHT22;7938;47.666;9.434;2022-07-06T14:23:24;34.60;65.30
15676;DHT22;7938;47.666;9.434;2022-07-06T14:25:52;35.20;64.80
15676;DHT22;7938;47.666;9.434;2022-07-06T14:28:20;35.60;64.90
15676;DHT22;7938;47.666;9.434;2022-07-06T14:30:47;35.60;64.40
15676;DHT22;7938;47.666;9.434;2022-07-06T14:33:14;36.00;61.90
15676;DHT22;7938;47.666;9.434;2022-07-06T14:35:43;36.80;61.30
15676;DHT22;7938;47.666;9.434;2022-07-06T14:38:14;36.70;59.90
15676;DHT22;7938;47.666;9.434;2022-07-06T14:40:41;36.20;60.00
15676;DHT22;7938;47.666;9.434;2022-07-06T14:43:10;36.40;60.20
15676;DHT22;7938;47.666;9.434;2022-07-06T14:45:37;36.40;61.40
15676;DHT22;7938;47.666;9.434;2022-07-06T14:48:05;35.60;58.90
15676;DHT22;7938;47.666;9.434;2022-07-06T14:50:32;36.40;58.30
15676;DHT22;7938;47.666;9.434;2022-07-06T14:53:00;36.60;59.00
15676;DHT22;7938;47.666;9.434;2022-07-06T14:55:27;36.70;59.30
15676;DHT22;7938;47.666;9.434;2022-07-06T14:57:54;36.90;55.60
15676;DHT22;7938;47.666;9.434;2022-07-06T15:00:23;35.80;54.70
15676;DHT22;7938;47.666;9.434;2022-07-06T15:02:50;35.80;55.30
15676;DHT22;7938;47.666;9.434;2022-07-06T15:05:17;35.40;58.10
15676;DHT22;7938;47.666;9.434;2022-07-06T15:07:43;35.00;57.70
15676;DHT22;7938;47.666;9.434;2022-07-06T15:10:10;34.10;59.80
15676;DHT22;7938;47.666;9.434;2022-07-06T15:12:38;34.00;57.60
15676;DHT22;7938;47.666;9.434;2022-07-06T15:15:05;34.30;58.10
15676;DHT22;7938;47.666;9.434;2022-07-06T15:17:34;34.30;58.10
15676;DHT22;7938;47.666;9.434;2022-07-06T15:20:01;35.30;56.90
15676;DHT22;7938;47.666;9.434;2022-07-06T15:22:28;35.70;57.40
15676;DHT22;7938;47.666;9.434;2022-07-06T15:24:55;36.30;57.50
15676;DHT22;7938;47.666;9.434;2022-07-06T15:27:22;37.10;57.80
15676;DHT22;7938;47.666;9.434;2022-07-06T15:29:49;37.90;55.70
15676;DHT22;7938;47.666;9.434;2022-07-06T15:32:16;37.80;56.10
15676;DHT22;7938;47.666;9.434;2022-07-06T15:34:44;36.70;54.70
15676;DHT22;7938;47.666;9.434;2022-07-06T15:37:11;37.50;54.80
15676;DHT22;7938;47.666;9.434;2022-07-06T15:39:38;38.00;53.80
15676;DHT22;7938;47.666;9.434;2022-07-06T15:42:05;38.60;52.50
15676;DHT22;7938;47.666;9.434;2022-07-06T15:44:32;38.70;53.20
15676;DHT22;7938;47.666;9.434;2022-07-06T15:47:03;38.70;53.10
15676;DHT22;7938;47.666;9.434;2022-07-06T15:49:31;39.10;52.10
15676;DHT22;7938;47.666;9.434;2022-07-06T15:52:00;38.90;53.90
15676;DHT22;7938;47.666;9.434;2022-07-06T15:54:27;38.20;51.90
15676;DHT22;7938;47.666;9.434;2022-07-06T15:56:54;35.50;56.00
15676;DHT22;7938;47.666;9.434;2022-07-06T15:59:21;35.90;57.30
15676;DHT22;7938;47.666;9.434;2022-07-06T16:01:49;36.20;56.20
15676;DHT22;7938;47.666;9.434;2022-07-06T16:04:16;37.50;55.40
15676;DHT22;7938;47.666;9.434;2022-07-06T16:06:43;36.40;53.00
15676;DHT22;7938;47.666;9.434;2022-07-06T16:09:12;35.50;57.20
15676;DHT22;7938;47.666;9.434;2022-07-06T16:11:39;35.90;55.00
15676;DHT22;7938;47.666;9.434;2022-07-06T16:14:05;37.20;53.00
15676;DHT22;7938;47.666;9.434;2022-07-06T16:16:32;38.00;53.40
15676;DHT22;7938;47.666;9.434;2022-07-06T16:18:59;38.40;50.20
15676;DHT22;7938;47.666;9.434;2022-07-06T16:21:28;37.50;52.60
15676;DHT22;7938;47.666;9.434;2022-07-06T16:23:55;35.30;54.90
15676;DHT22;7938;47.666;9.434;2022-07-06T16:26:23;35.50;54.40
15676;DHT22;7938;47.666;9.434;2022-07-06T16:29:04;36.40;53.30
15676;DHT22;7938;47.666;9.434;2022-07-06T16:31:31;36.90;52.70
15676;DHT22;7938;47.666;9.434;2022-07-06T16:33:58;37.70;53.10
15676;DHT22;7938;47.666;9.434;2022-07-06T16:36:25;38.10;51.70
15676;DHT22;7938;47.666;9.434;2022-07-06T16:38:52;38.20;50.40
15676;DHT22;7938;47.666;9.434;2022-07-06T16:41:19;38.60;50.20
15676;DHT22;7938;47.666;9.434;2022-07-06T16:43:47;38.50;50.30
15676;DHT22;7938;47.666;9.434;2022-07-06T16:46:15;38.10;51.90
15676;DHT22;7938;47.666;9.434;2022-07-06T16:48:42;37.70;52.00
15676;DHT22;7938;47.666;9.434;2022-07-06T16:51:09;37.80;51.10
15676;DHT22;7938;47.666;9.434;2022-07-06T16:53:36;37.90;49.30
15676;DHT22;7938;47.666;9.434;2022-07-06T16:56:04;38.20;52.30
15676;DHT22;7938;47.666;9.434;2022-07-06T16:58:31;37.10;50.40
15676;DHT22;7938;47.666;9.434;2022-07-06T17:01:00;35.60;52.50
15676;DHT22;7938;47.666;9.434;2022-07-06T17:03:27;33.60;54.90
15676;DHT22;7938;47.666;9.434;2022-07-06T17:05:54;32.10;57.60
15676;DHT22;7938;47.666;9.434;2022-07-06T17:08:22;30.90;61.50
15676;DHT22;7938;47.666;9.434;2022-07-06T17:10:49;30.00;63.90
15676;DHT22;7938;47.666;9.434;2022-07-06T17:13:16;30.00;62.20
15676;DHT22;7938;47.666;9.434;2022-07-06T17:15:42;29.70;64.70
15676;DHT22;7938;47.666;9.434;2022-07-06T17:18:11;29.40;63.90
15676;DHT22;7938;47.666;9.434;2022-07-06T17:20:40;29.20;63.80
15676;DHT22;7938;47.666;9.434;2022-07-06T17:23:07;28.60;64.50
15676;DHT22;7938;47.666;9.434;2022-07-06T17:25:34;29.00;65.30
15676;DHT22;7938;47.666;9.434;2022-07-06T17:28:01;29.30;66.00
15676;DHT22;7938;47.666;9.434;2022-07-06T17:30:28;30.80;64.10
15676;DHT22;7938;47.666;9.434;2022-07-06T17:32:56;30.80;64.50
15676;DHT22;7938;47.666;9.434;2022-07-06T17:35:25;31.80;63.20
15676;DHT22;7938;47.666;9.434;2022-07-06T17:37:51;32.20;62.80
15676;DHT22;7938;47.666;9.434;2022-07-06T17:40:18;31.30;62.40
15676;DHT22;7938;47.666;9.434;2022-07-06T17:42:49;29.70;65.10
15676;DHT22;7938;47.666;9.434;2022-07-06T17:45:16;29.00;67.60
15676;DHT22;7938;47.666;9.434;2022-07-06T17:47:43;28.30;70.60
15676;DHT22;7938;47.666;9.434;2022-07-06T17:50:10;27.60;72.60
15676;DHT22;7938;47.666;9.434;2022-07-06T17:52:38;26.80;74.40
15676;DHT22;7938;47.666;9.434;2022-07-06T17:55:05;26.50;75.10
15676;DHT22;7938;47.666;9.434;2022-07-06T17:57:32;26.30;77.10
15676;DHT22;7938;47.666;9.434;2022-07-06T17:59:59;26.00;78.00
15676;DHT22;7938;47.666;9.434;2022-07-06T18:02:26;25.80;79.00
15676;DHT22;7938;47.666;9.434;2022-07-06T18:04:53;25.60;79.10
15676;DHT22;7938;47.666;9.434;2022-07-06T18:07:21;25.40;80.60
15676;DHT22;7938;47.666;9.434;2022-07-06T18:09:49;25.20;81.80
15676;DHT22;7938;47.666;9.434;2022-07-06T18:12:17;25.00;80.00
15676;DHT22;7938;47.666;9.434;2022-07-06T18:14:44;24.90;80.50
15676;DHT22;7938;47.666;9.434;2022-07-06T18:17:11;24.70;81.10
15676;DHT22;7938;47.666;9.434;2022-07-06T18:19:38;24.60;81.40
15676;DHT22;7938;47.666;9.434;2022-07-06T18:22:04;24.40;81.90
15676;DHT22;7938;47.666;9.434;2022-07-06T18:24:31;24.20;83.10
15676;DHT22;7938;47.666;9.434;2022-07-06T18:27:00;24.00;83.50
15676;DHT22;7938;47.666;9.434;2022-07-06T18:29:27;23.80;84.40
15676;DHT22;7938;47.666;9.434;2022-07-06T18:31:53;23.50;85.00
15676;DHT22;7938;47.666;9.434;2022-07-06T18:34:20;23.40;85.60
15676;DHT22;7938;47.666;9.434;2022-07-06T18:36:47;23.30;85.30
15676;DHT22;7938;47.666;9.434;2022-07-06T18:39:14;23.20;85.80
15676;DHT22;7938;47.666;9.434;2022-07-06T18:41:44;23.10;86.30
15676;DHT22;7938;47.666;9.434;2022-07-06T18:44:12;23.10;87.20
15676;DHT22;7938;47.666;9.434;2022-07-06T18:46:39;22.90;87.60
15676;DHT22;7938;47.666;9.434;2022-07-06T18:49:06;22.90;88.10
15676;DHT22;7938;47.666;9.434;2022-07-06T18:51:33;22.80;88.70
15676;DHT22;7938;47.666;9.434;2022-07-06T18:54:03;22.80;89.00
15676;DHT22;7938;47.666;9.434;2022-07-06T18:56:30;22.80;88.90
15676;DHT22;7938;47.666;9.434;2022-07-06T18:58:57;22.70;88.90
15676;DHT22;7938;47.666;9.434;2022-07-06T19:01:25;22.50;89.50
15676;DHT22;7938;47.666;9.434;2022-07-06T19:03:52;22.60;89.80
15676;DHT22;7938;47.666;9.434;2022-07-06T19:06:19;22.50;89.70
15676;DHT22;7938;47.666;9.434;2022-07-06T19:08:46;22.40;89.70
15676;DHT22;7938;47.666;9.434;2022-07-06T19:11:13;22.20;90.10
15676;DHT22;7938;47.666;9.434;2022-07-06T19:13:40;22.10;90.50
15676;DHT22;7938;47.666;9.434;2022-07-06T19:16:09;22.00;90.60
15676;DHT22;7938;47.666;9.434;2022-07-06T19:18:38;21.90;90.60
15676;DHT22;7938;47.666;9.434;2022-07-06T19:21:05;21.70;90.60
15676;DHT22;7938;47.666;9.434;2022-07-06T19:23:32;21.60;91.00
15676;DHT22;7938;47.666;9.434;2022-07-06T19:25:59;21.50;91.20
15676;DHT22;7938;47.666;9.434;2022-07-06T19:28:26;21.40;91.20
15676;DHT22;7938;47.666;9.434;2022-07-06T19:30:53;21.30;91.70
15676;DHT22;7938;47.666;9.434;2022-07-06T19:33:21;21.20;91.50
15676;DHT22;7938;47.666;9.434;2022-07-06T19:35:49;21.10;91.70
15676;DHT22;7938;47.666;9.434;2022-07-06T19:38:16;20.90;91.90
15676;DHT22;7938;47.666;9.434;2022-07-06T19:40:43;20.80;92.20
15676;DHT22;7938;47.666;9.434;2022-07-06T19:43:10;20.80;92.50
15676;DHT22;7938;47.666;9.434;2022-07-06T19:45:37;20.70;92.50
15676;DHT22;7938;47.666;9.434;2022-07-06T19:48:04;20.70;92.80
15676;DHT22;7938;47.666;9.434;2022-07-06T19:50:31;20.60;92.90
15676;DHT22;7938;47.666;9.434;2022-07-06T19:52:59;20.50;93.20
15676;DHT22;7938;47.666;9.434;2022-07-06T19:55:26;20.50;93.30